EKVGENBR

Guest
Details From EKVG - Vagar
To ENBR - Bergen Lufthavn Flesland
Flight Number -
Tags decoded
Created
Modified
Stats Distance 376 nm / 697 km
Max Altitude 0 ft / 0 m
Waypoints 4
Social Downloads 4
Likes 0
Share VATSIM

Download

Looking for another format? Having issues loading an existing format? Contact us
Advertisement - Login to hide

Notes

Requested: EKVG CONNY VALDI ENBR

Route

EKVG CONNY VALDI ENBR

ID Type Via Altitude Latitude Longitude Leg Dist Tot Dist Heading (true) Name
O EKVG APT - 0 ft / 0 m 62.06358˚ -7.27704˚ - 0 nm - Vagar
CONNY FIX - 0 ft / 0 m 61.90000˚ -5.58333˚ 48 nm 48 nm 101° / 102° -
VALDI FIX - 0 ft / 0 m 61.21417˚ 0.00000˚ 164 nm 213 nm 102° / 107° -
O ENBR APT - 0 ft / 0 m 60.29339˚ 5.21814˚ 162 nm 376 nm 108° / 112° Bergen Lufthavn Flesland

Altitude Profile

Advertisement - Login to hide

Weather


0- 5 10 15 20 25 30 35+ Temperature / ° C

Clouds and Precipitation
Forecast for 2017-12-13 12:00 UTC. Updated 31 minutes ago

Ground ~20,000 ft ~40,000 ft Winds

EKVG

Details ICAO EKVG (FAE)
Name Vagar
Region Denmark / Faroe Islands
Timezone Atlantic/Faroe (UTC+0.0)
Stats Elevation 280 ft / 85 m (AMSL)
Location 62.063584° -7.277044°
Runways 1
Magnetic Variation 5.385° W

METAR

EKVG 130920Z AUTO 28010KT 9999NDV DZ FEW012/// BKN018/// 03/03 Q0973 RMK BKN011/// WIND 850FT 30019KT

Decode

TAF

Not found

Departure Runways

ID Width Length Bearing (true) Bearing (mag) Surface Threshold Offset Overrun Length
13 98 ft / 30 m 4,088 ft / 1,246 m 117.92° 123.30° Asphalt 0 ft / 0 m 197 ft / 60 m
31 98 ft / 30 m 4,088 ft / 1,246 m 297.94° 303.32° Asphalt 0 ft / 0 m 197 ft / 60 m

ENBR

Details ICAO ENBR (BGO)
Name Bergen Lufthavn Flesland
Region Norway
Timezone Europe/Oslo (UTC+1.0)
Stats Elevation 165 ft / 50 m (AMSL)
Location 60.293388° 5.218140°
Runways 1
Magnetic Variation 0.840° E

METAR

ENBR 130920Z 13012KT 9999 -RA SCT020 BKN035 02/M01 Q0983 TEMPO 15022G35KT 4000 RASN VV012 RMK WIND 1200FT 13028KT

Decode

TAF

TAF ENBR 130500Z 1306/1406 14012KT 9999 SCT015 BKN030 PROB30 TEMPO 1306/1310 15022G35KT 2000 SNRA VV009 BECMG 1309/1311 21012KT TEMPO 1310/1316 22020G30KT 4000 SHRAGS BKN014CB BECMG 1316/1318 15010KT TEMPO 1316/1406 SHRA BKN014CB

Decode

Destination Runways

ID Width Length Bearing (true) Bearing (mag) Surface Threshold Offset Overrun Length
17 148 ft / 45 m 9,793 ft / 2,985 m 170.56° 169.72° Asphalt 886 ft / 270 m 0 ft / 0 m
35 148 ft / 45 m 9,793 ft / 2,985 m 350.57° 349.73° Asphalt 886 ft / 270 m 0 ft / 0 m

Approach Navaids

Runway Type Ident Frequency Range Bearing (true) Bearing (mag) Slope Elevation
17 Localiser BR 109.90 MHz 18 nm / 33 km 170.56° 169.72° - 165 ft / 50 m (AMSL)
17 Glidescope BR 109.90 MHz 10 nm / 19 km 170.56° 169.72° 3.10° 165 ft / 50 m (AMSL)
35 Localiser BG 110.50 MHz 18 nm / 33 km 350.55° 349.71° - 165 ft / 50 m (AMSL)
35 Glidescope BG 110.50 MHz 10 nm / 19 km 350.56° 349.72° 3.00° 165 ft / 50 m (AMSL)

Popular Alternatives